createdAt,value
2023-04-01T00:01:20.285Z,50309.59
2023-04-01T00:03:49.427Z,50320.38
2023-04-01T00:06:19.269Z,50306.39
2023-04-01T00:08:47.842Z,50318.38
2023-04-01T00:11:16.962Z,50319.18
2023-04-01T00:13:46.730Z,50323.18
2023-04-01T00:18:48.808Z,50303.99
2023-04-01T00:21:17.455Z,50315.18
2023-04-01T00:23:45.801Z,50306.79
2023-04-01T00:26:15.394Z,50313.98
2023-04-01T00:28:44.191Z,50313.18
2023-04-01T00:31:13.352Z,50335.18
2023-04-01T00:33:42.494Z,50319.59
2023-04-01T00:36:29.181Z,50314.79
2023-04-01T00:39:00.261Z,50325.98
2023-04-01T00:41:29.301Z,50312.79
2023-04-01T00:44:35.499Z,50324.38
2023-04-01T00:47:04.331Z,50325.58
2023-04-01T00:49:45.681Z,50312.79
2023-04-01T00:52:20.506Z,50316.79
2023-04-01T00:54:53.739Z,50323.59
2023-04-01T00:57:32.080Z,50311.18
2023-04-01T01:00:00.984Z,50308.79
2023-04-01T01:02:29.427Z,50330.78
2023-04-01T01:04:58.017Z,50335.58
2023-04-01T01:08:01.798Z,50324.38
2023-04-01T01:10:35.703Z,50320.79
2023-04-01T01:13:23.967Z,50316.78
2023-04-01T01:16:07.578Z,50315.59
2023-04-01T01:18:44.938Z,50302.79
2023-04-01T01:21:22.020Z,50322.38
2023-04-01T01:24:26.326Z,50303.99
2023-04-01T01:27:05.520Z,50317.19
2023-04-01T01:30:11.233Z,50318.79
2023-04-01T01:32:51.807Z,50324.79
2023-04-01T01:35:29.167Z,50320.79
2023-04-01T01:38:12.570Z,50314.38
2023-04-01T01:40:47.030Z,50318.79
2023-04-01T01:43:19.607Z,50315.19
2023-04-01T01:45:52.233Z,50312.79
2023-04-01T01:48:22.018Z,50317.59
2023-04-01T01:50:51.496Z,50296.39
2023-04-01T01:53:19.957Z,50299.19
2023-04-01T01:55:49.093Z,50314.38
2023-04-01T01:58:23.603Z,50312.39
2023-04-01T02:00:55.740Z,50330.38
2023-04-01T02:03:27.773Z,50325.18
2023-04-01T02:06:01.175Z,50323.58
2023-04-01T02:08:41.462Z,50301.59
2023-04-01T02:11:13.190Z,50317.59
2023-04-01T02:13:58.053Z,50311.59
2023-04-01T02:16:35.907Z,50315.98
2023-04-01T02:19:08.537Z,50333.18
2023-04-01T02:21:39.017Z,50335.18
2023-04-01T02:24:11.756Z,50323.18
2023-04-01T02:26:42.170Z,50311.59
2023-04-01T02:29:12.802Z,50319.18
2023-04-01T02:31:43.054Z,50319.58
2023-04-01T02:34:12.535Z,50302.39
2023-04-01T02:36:41.024Z,50320.38
2023-04-01T02:39:09.500Z,50288.79
2023-04-01T02:41:42.403Z,50301.99
2023-04-01T02:44:13.984Z,50322.78
2023-04-01T02:46:42.532Z,50328.38
2023-04-01T02:49:11.397Z,50326.78
2023-04-01T02:51:39.604Z,50310.79
2023-04-01T02:54:07.993Z,50313.59
2023-04-01T02:56:36.457Z,50312.79
2023-04-01T02:59:04.671Z,50319.18
2023-04-01T03:01:33.104Z,50331.58
2023-04-01T03:04:01.646Z,50335.18
2023-04-01T03:06:30.726Z,50343.98
2023-04-01T03:08:59.021Z,50325.98
2023-04-01T03:11:28.038Z,50337.18
2023-04-01T03:13:56.276Z,50327.98
2023-04-01T03:16:25.042Z,50325.98
2023-04-01T03:18:54.424Z,50337.18
2023-04-01T03:21:24.597Z,50324.78
2023-04-01T03:23:53.486Z,50324.38
2023-04-01T03:26:22.708Z,50334.78
2023-04-01T03:28:51.268Z,50351.57
2023-04-01T03:31:22.283Z,50333.58
2023-04-01T03:33:53.095Z,50327.98
2023-04-01T03:36:21.705Z,50326.38
2023-04-01T03:38:51.003Z,50331.18
2023-04-01T03:41:22.549Z,50329.58
2023-04-01T03:43:51.154Z,50340.77
2023-04-01T03:46:20.908Z,50331.18
2023-04-01T03:48:49.430Z,50329.98
2023-04-01T03:51:18.000Z,50336.78
2023-04-01T03:53:46.397Z,50336.77
2023-04-01T03:56:14.604Z,50314.79
2023-04-01T03:58:42.874Z,50328.38
2023-04-01T04:01:16.620Z,50329.98
2023-04-01T04:03:45.525Z,50321.98
2023-04-01T04:06:15.632Z,50334.78
2023-04-01T04:08:45.535Z,50338.38
2023-04-01T04:11:14.739Z,50320.38
2023-04-01T04:13:44.424Z,50329.98
2023-04-01T04:16:13.009Z,50327.18
2023-04-01T04:18:44.981Z,50349.57
2023-04-01T04:21:16.041Z,50345.98
2023-04-01T04:23:45.148Z,50344.38
2023-04-01T04:26:16.335Z,50321.59
2023-04-01T04:28:46.878Z,50328.78
2023-04-01T04:31:22.220Z,50332.38
2023-04-01T04:33:52.780Z,50333.58
2023-04-01T04:36:22.111Z,50337.58
2023-04-01T04:38:51.090Z,50324.38
2023-04-01T04:41:20.300Z,50332.78
2023-04-01T04:43:53.246Z,50325.98
2023-04-01T04:46:22.373Z,50316.38
2023-04-01T04:48:53.197Z,50323.58
2023-04-01T04:51:22.216Z,50312.39
2023-04-01T04:53:51.568Z,50305.99
2023-04-01T04:56:27.190Z,50315.98
2023-04-01T04:59:07.769Z,50323.58
2023-04-01T05:01:45.293Z,50316.79
2023-04-01T05:04:17.000Z,50305.19
2023-04-01T05:06:46.369Z,50294.39
2023-04-01T05:09:14.758Z,50286.79
2023-04-01T05:11:43.998Z,50284.39
2023-04-01T05:14:18.115Z,50290.39
2023-04-01T05:16:55.487Z,50293.19
2023-04-01T05:19:23.889Z,50303.99
2023-04-01T05:21:54.091Z,50291.99
2023-04-01T05:24:23.273Z,50272.80
2023-04-01T05:26:52.225Z,50300.79
2023-04-01T05:29:20.767Z,50269.20
2023-04-01T05:31:55.923Z,50277.20
2023-04-01T05:34:24.178Z,50286.79
2023-04-01T05:36:53.394Z,50266.00
2023-04-01T05:39:23.590Z,50279.60
2023-04-01T05:41:55.473Z,50270.40
2023-04-01T05:44:23.875Z,50263.60
2023-04-01T05:47:05.563Z,50279.60
2023-04-01T05:49:34.814Z,50259.21
2023-04-01T05:52:06.687Z,50272.00
2023-04-01T05:54:38.727Z,50259.61
2023-04-01T05:57:07.115Z,50262.80
2023-04-01T05:59:36.182Z,50262.00
2023-04-01T06:02:05.509Z,50273.60
2023-04-01T06:04:39.023Z,50285.20
2023-04-01T06:07:18.722Z,50281.59
2023-04-01T06:09:47.541Z,50286.79
2023-04-01T06:12:43.756Z,50270.00
2023-04-01T06:15:32.837Z,50278.00
2023-04-01T06:18:41.924Z,50266.01
2023-04-01T06:21:52.441Z,50284.00
2023-04-01T06:24:39.600Z,50259.20
2023-04-01T06:27:20.118Z,50274.39
2023-04-01T06:29:58.152Z,50272.40
2023-04-01T06:32:59.715Z,50275.20
2023-04-01T06:35:53.516Z,50268.00
2023-04-01T06:38:31.870Z,50253.61
2023-04-01T06:41:25.874Z,50278.00
2023-04-01T06:44:20.688Z,50271.20
2023-04-01T06:47:37.776Z,50254.01
2023-04-01T06:51:02.970Z,50258.40
2023-04-01T06:54:07.796Z,50256.40
2023-04-01T06:57:03.973Z,50245.61
2023-04-01T06:59:36.452Z,50258.00
2023-04-01T07:02:10.993Z,50263.60
2023-04-01T07:04:44.404Z,50253.21
2023-04-01T07:07:51.245Z,50254.80
2023-04-01T07:10:44.095Z,50252.01
2023-04-01T07:13:38.065Z,50236.41
2023-04-01T07:17:02.848Z,50226.02
2023-04-01T07:20:15.912Z,50232.81
2023-04-01T07:22:50.860Z,50234.01
2023-04-01T07:25:49.277Z,50236.41
2023-04-01T07:28:47.869Z,50238.81
2023-04-01T07:31:41.283Z,50233.21
2023-04-01T07:34:15.730Z,50221.62
2023-04-01T07:36:49.934Z,50234.01
2023-04-01T07:39:43.256Z,50234.41
2023-04-01T07:42:22.480Z,50230.01
2023-04-01T07:45:20.762Z,50232.41
2023-04-01T07:48:13.346Z,50239.61
2023-04-01T07:50:53.219Z,50215.21
2023-04-01T07:53:45.721Z,50235.61
2023-04-01T07:56:29.882Z,50239.21
2023-04-01T07:59:06.749Z,50224.41
2023-04-01T08:02:16.021Z,50250.01
2023-04-01T08:05:00.846Z,50238.41
2023-04-01T08:08:05.566Z,50223.21
2023-04-01T08:11:03.735Z,50244.81
2023-04-01T08:14:21.942Z,50232.01
2023-04-01T08:17:11.827Z,50238.80
2023-04-01T08:20:11.439Z,50228.82
2023-04-01T08:22:46.989Z,50236.41
2023-04-01T08:25:28.845Z,50233.21
2023-04-01T08:28:46.267Z,50228.41
2023-04-01T08:31:24.821Z,50240.01
2023-04-01T08:33:56.032Z,50235.21
2023-04-01T08:36:35.307Z,50254.80
2023-04-01T08:39:21.477Z,50239.61
2023-04-01T08:42:00.128Z,50240.41
2023-04-01T08:45:01.720Z,50238.01
2023-04-01T08:47:55.105Z,50257.60
2023-04-01T08:50:42.466Z,50228.01
2023-04-01T08:53:43.873Z,50247.21
2023-04-01T08:56:22.083Z,50231.61
2023-04-01T08:59:16.034Z,50239.61
2023-04-01T09:02:01.052Z,50248.01
2023-04-01T09:05:20.485Z,50230.81
2023-04-01T09:08:04.416Z,50239.21
2023-04-01T09:10:42.063Z,50230.82
2023-04-01T09:14:01.447Z,50228.01
2023-04-01T09:16:52.304Z,50217.21
2023-04-01T09:19:48.441Z,50222.02
2023-04-01T09:22:22.927Z,50232.01
2023-04-01T09:25:13.111Z,50206.82
2023-04-01T09:27:55.756Z,50212.82
2023-04-01T09:31:01.654Z,50202.02
2023-04-01T09:33:48.454Z,50220.82
2023-04-01T09:36:30.014Z,50201.23
2023-04-01T09:39:33.942Z,50198.43
2023-04-01T09:42:02.514Z,50210.42
2023-04-01T09:44:46.260Z,50201.23
2023-04-01T09:47:40.598Z,50198.83
2023-04-01T09:50:28.228Z,50204.02
2023-04-01T09:53:06.244Z,50181.63
2023-04-01T09:56:13.040Z,50193.63
2023-04-01T09:58:59.539Z,50199.23
2023-04-01T10:02:23.237Z,50208.82
2023-04-01T10:04:57.991Z,50206.43
2023-04-01T10:07:57.886Z,50217.22
2023-04-01T10:10:41.812Z,50183.63
2023-04-01T10:13:43.755Z,50196.82
2023-04-01T10:17:00.053Z,50199.23
2023-04-01T10:20:09.621Z,50213.22
2023-04-01T10:22:48.222Z,50195.63
2023-04-01T10:25:35.650Z,50210.42
2023-04-01T10:28:08.460Z,50183.23
2023-04-01T10:31:18.114Z,50218.02
2023-04-01T10:34:28.024Z,50220.41
2023-04-01T10:36:59.329Z,50209.62
2023-04-01T10:39:57.864Z,50193.63
2023-04-01T10:43:21.550Z,50214.82
2023-04-01T10:46:16.929Z,50191.23
2023-04-01T10:49:00.860Z,50203.63
2023-04-01T10:52:05.989Z,50193.23
2023-04-01T10:55:11.257Z,50193.63
2023-04-01T10:58:41.818Z,50185.63
2023-04-01T11:02:03.965Z,50194.43
2023-04-01T11:05:25.666Z,50212.02
2023-04-01T11:08:35.840Z,50198.02
2023-04-01T11:11:31.067Z,50193.23
2023-04-01T11:14:44.340Z,50194.43
2023-04-01T11:17:29.002Z,50208.82
2023-04-01T11:20:19.589Z,50189.23
2023-04-01T11:23:06.466Z,50194.43
2023-04-01T11:26:21.784Z,50185.63
2023-04-01T11:29:44.304Z,50181.23
2023-04-01T11:32:49.452Z,50174.03
2023-04-01T11:35:34.400Z,50177.63
2023-04-01T11:38:35.022Z,50164.04
2023-04-01T11:41:30.777Z,50157.24
2023-04-01T11:44:37.520Z,50169.24
2023-04-01T11:47:19.644Z,50172.43
2023-04-01T11:50:26.906Z,50183.63
2023-04-01T11:53:30.678Z,50186.43
2023-04-01T11:56:20.454Z,50177.63
2023-04-01T11:58:58.693Z,50191.23
2023-04-01T12:01:27.057Z,50189.23
2023-04-01T12:04:12.347Z,50182.43
2023-04-01T12:07:01.852Z,50175.63
2023-04-01T12:10:23.241Z,50190.83
2023-04-01T12:13:08.781Z,50196.02
2023-04-01T12:15:43.068Z,50201.22
2023-04-01T12:18:36.363Z,50204.42
2023-04-01T12:21:20.628Z,50196.02
2023-04-01T12:24:35.616Z,50210.82
2023-04-01T12:27:10.129Z,50220.02
2023-04-01T12:30:04.710Z,50228.41
2023-04-01T12:33:03.604Z,50235.21
2023-04-01T12:35:50.519Z,50260.80
2023-04-01T12:38:20.380Z,50250.40
2023-04-01T12:40:55.609Z,50250.80
2023-04-01T12:43:42.083Z,50264.40
2023-04-01T12:46:30.255Z,50259.60
2023-04-01T12:49:17.323Z,50252.01
2023-04-01T12:51:45.985Z,50240.01
2023-04-01T12:54:33.484Z,50266.00
2023-04-01T12:57:24.911Z,50261.20
2023-04-01T13:00:19.573Z,50251.21
2023-04-01T13:03:26.978Z,50251.61
2023-04-01T13:06:18.554Z,50269.20
2023-04-01T13:09:30.580Z,50257.21
2023-04-01T13:12:39.667Z,50262.40
2023-04-01T13:15:25.093Z,50256.80
2023-04-01T13:18:29.017Z,50252.41
2023-04-01T13:21:17.732Z,50274.40
2023-04-01T13:24:34.654Z,50251.21
2023-04-01T13:27:30.972Z,50275.20
2023-04-01T13:30:17.980Z,50271.20
2023-04-01T13:33:02.945Z,50268.00
2023-04-01T13:35:39.670Z,50261.20
2023-04-01T13:38:17.982Z,50261.21
2023-04-01T13:41:36.421Z,50254.01
2023-04-01T13:44:31.843Z,50242.01
2023-04-01T13:47:25.027Z,50265.60
2023-04-01T13:50:08.312Z,50271.60
2023-04-01T13:53:14.280Z,50260.40
2023-04-01T13:55:57.047Z,50251.61
2023-04-01T13:59:08.870Z,50247.21
2023-04-01T14:02:01.070Z,50248.80
2023-04-01T14:05:00.783Z,50260.40
2023-04-01T14:07:47.292Z,50250.41
2023-04-01T14:10:53.627Z,50260.40
2023-04-01T14:13:56.347Z,50245.61
2023-04-01T14:16:30.702Z,50234.41
2023-04-01T14:19:27.352Z,50235.21
2023-04-01T14:22:15.268Z,50251.61
2023-04-01T14:25:23.388Z,50246.01
2023-04-01T14:28:14.190Z,50250.41
2023-04-01T14:31:06.892Z,50243.21
2023-04-01T14:33:53.470Z,50248.01
2023-04-01T14:36:44.639Z,50253.21
2023-04-01T14:39:31.822Z,50242.01
2023-04-01T14:42:34.403Z,50248.81
2023-04-01T14:45:43.995Z,50243.61
2023-04-01T14:48:15.353Z,50253.61
2023-04-01T14:50:55.757Z,50233.61
2023-04-01T14:53:27.182Z,50249.61
2023-04-01T14:56:04.053Z,50234.41
2023-04-01T14:58:58.261Z,50241.61
2023-04-01T15:01:51.821Z,50242.01
2023-04-01T15:04:49.540Z,50231.21
2023-04-01T15:08:05.535Z,50235.21
2023-04-01T15:10:41.287Z,50253.21
2023-04-01T15:13:20.974Z,50257.60
2023-04-01T15:15:59.539Z,50248.01
2023-04-01T15:19:02.526Z,50256.41
2023-04-01T15:21:49.872Z,50240.81
2023-04-01T15:24:21.071Z,50249.21
2023-04-01T15:27:14.161Z,50257.61
2023-04-01T15:30:07.690Z,50241.61
2023-04-01T15:33:03.745Z,50249.61
2023-04-01T15:35:45.372Z,50238.81
2023-04-01T15:38:28.302Z,50226.82
2023-04-01T15:41:21.839Z,50222.02
2023-04-01T15:43:55.265Z,50239.21
2023-04-01T15:46:42.661Z,50242.41
2023-04-01T15:49:41.724Z,50235.21
2023-04-01T15:52:35.794Z,50244.01
2023-04-01T15:55:32.274Z,50231.61
2023-04-01T15:58:38.073Z,50228.02
2023-04-01T16:01:37.223Z,50244.41
2023-04-01T16:04:29.564Z,50253.60
2023-04-01T16:07:12.088Z,50237.61
2023-04-01T16:09:49.355Z,50230.41
2023-04-01T16:12:20.987Z,50248.41
2023-04-01T16:15:15.783Z,50256.80
2023-04-01T16:18:06.817Z,50241.21
2023-04-01T16:20:50.671Z,50258.01
2023-04-01T16:23:21.784Z,50242.41
2023-04-01T16:26:15.112Z,50262.01
2023-04-01T16:29:09.561Z,50246.80
2023-04-01T16:31:53.870Z,50254.41
2023-04-01T16:34:30.576Z,50264.80
2023-04-01T16:37:33.210Z,50266.40
2023-04-01T16:40:19.837Z,50250.01
2023-04-01T16:43:21.680Z,50255.60
2023-04-01T16:46:36.647Z,50258.40
2023-04-01T16:49:12.905Z,50262.80
2023-04-01T16:52:04.915Z,50252.41
2023-04-01T16:55:01.296Z,50261.60
2023-04-01T16:57:38.724Z,50254.41
2023-04-01T17:00:15.935Z,50256.80
2023-04-01T17:02:59.668Z,50249.21
2023-04-01T17:05:41.841Z,50262.00
2023-04-01T17:08:42.376Z,50270.40
2023-04-01T17:11:48.315Z,50268.40
2023-04-01T17:14:35.143Z,50280.40
2023-04-01T17:17:42.180Z,50281.99
2023-04-01T17:20:13.922Z,50277.60
2023-04-01T17:22:45.557Z,50290.79
2023-04-01T17:26:09.679Z,50282.40
2023-04-01T17:28:49.399Z,50285.20
2023-04-01T17:31:18.841Z,50276.80
2023-04-01T17:33:58.446Z,50284.79
2023-04-01T17:36:45.676Z,50279.99
2023-04-01T17:39:31.007Z,50278.00
2023-04-01T17:42:25.276Z,50284.39
2023-04-01T17:45:25.237Z,50301.19
2023-04-01T17:48:17.444Z,50293.99
2023-04-01T17:51:15.347Z,50307.99
2023-04-01T17:53:49.821Z,50295.99
2023-04-01T17:56:43.712Z,50292.79
2023-04-01T17:59:43.634Z,50282.39
2023-04-01T18:02:32.877Z,50286.39
2023-04-01T18:05:04.448Z,50302.79
2023-04-01T18:07:39.017Z,50297.59
2023-04-01T18:10:25.393Z,50286.79
2023-04-01T18:13:13.146Z,50302.39
2023-04-01T18:16:03.025Z,50282.79
2023-04-01T18:18:49.675Z,50289.20
2023-04-01T18:21:38.607Z,50291.59
2023-04-01T18:24:45.290Z,50286.79
2023-04-01T18:27:38.024Z,50298.79
2023-04-01T18:30:21.994Z,50292.39
2023-04-01T18:32:58.448Z,50316.39
2023-04-01T18:35:46.488Z,50315.59
2023-04-01T18:38:23.531Z,50303.99
2023-04-01T18:41:12.226Z,50286.80
2023-04-01T18:43:57.447Z,50278.40
2023-04-01T18:46:47.380Z,50288.39
2023-04-01T18:49:23.664Z,50308.38
2023-04-01T18:52:13.961Z,50297.20
2023-04-01T18:55:04.073Z,50293.59
2023-04-01T18:58:00.563Z,50306.39
2023-04-01T19:00:44.405Z,50307.99
2023-04-01T19:03:46.638Z,50295.99
2023-04-01T19:06:33.244Z,50285.20
2023-04-01T19:09:31.903Z,50303.59
2023-04-01T19:12:12.516Z,50296.79
2023-04-01T19:14:58.538Z,50302.39
2023-04-01T19:17:58.008Z,50315.59
2023-04-01T19:20:42.279Z,50309.19
2023-04-01T19:23:38.297Z,50317.18
2023-04-01T19:26:22.340Z,50307.19
2023-04-01T19:29:08.963Z,50307.99
2023-04-01T19:31:42.142Z,50310.79
2023-04-01T19:34:48.767Z,50305.99
2023-04-01T19:37:27.263Z,50319.59
2023-04-01T19:40:17.580Z,50309.19
2023-04-01T19:43:09.708Z,50317.98
2023-04-01T19:45:38.625Z,50317.59
2023-04-01T19:48:39.764Z,50305.19
2023-04-01T19:51:11.869Z,50314.39
2023-04-01T19:54:08.426Z,50307.99
2023-04-01T19:57:05.987Z,50302.39
2023-04-01T19:59:51.588Z,50306.39
2023-04-01T20:02:33.485Z,50299.59
2023-04-01T20:05:24.921Z,50301.19
2023-04-01T20:07:57.340Z,50302.79
2023-04-01T20:10:54.891Z,50305.99
2023-04-01T20:13:23.186Z,50318.38
2023-04-01T20:16:04.595Z,50306.39
2023-04-01T20:19:00.839Z,50310.79
2023-04-01T20:21:43.786Z,50309.18
2023-04-01T20:24:15.404Z,50307.19
2023-04-01T20:27:00.090Z,50313.59
2023-04-01T20:29:28.844Z,50323.58
2023-04-01T20:32:07.694Z,50310.79
2023-04-01T20:35:14.862Z,50303.99
2023-04-01T20:38:07.512Z,50311.19
2023-04-01T20:40:41.559Z,50308.39
2023-04-01T20:43:31.938Z,50293.59
2023-04-01T20:46:20.100Z,50302.79
2023-04-01T20:49:47.784Z,50296.79
2023-04-01T20:52:18.967Z,50300.79
2023-04-01T20:55:19.994Z,50309.19
2023-04-01T20:58:18.155Z,50305.19
2023-04-01T21:01:05.303Z,50296.79
2023-04-01T21:03:56.271Z,50294.79
2023-04-01T21:06:33.414Z,50298.39
2023-04-01T21:09:29.091Z,50308.79
2023-04-01T21:12:08.073Z,50295.99
2023-04-01T21:15:00.699Z,50299.99
2023-04-01T21:17:47.327Z,50310.39
2023-04-01T21:20:34.565Z,50306.79
2023-04-01T21:23:28.441Z,50324.78
2023-04-01T21:26:24.261Z,50309.19
2023-04-01T21:29:20.638Z,50307.99
2023-04-01T21:32:27.564Z,50301.99
2023-04-01T21:35:07.116Z,50309.99
2023-04-01T21:37:50.370Z,50303.19
2023-04-01T21:40:56.722Z,50303.19
2023-04-01T21:43:43.991Z,50305.99
2023-04-01T21:46:37.235Z,50309.99
2023-04-01T21:49:17.848Z,50303.19
2023-04-01T21:51:58.003Z,50317.99
2023-04-01T21:54:36.950Z,50295.59
2023-04-01T21:57:30.821Z,50308.38
2023-04-01T22:00:32.945Z,50316.79
2023-04-01T22:03:35.154Z,50301.59
2023-04-01T22:06:47.058Z,50312.78
2023-04-01T22:09:47.818Z,50300.79
2023-04-01T22:12:19.790Z,50321.59
2023-04-01T22:15:06.580Z,50304.39
2023-04-01T22:17:41.105Z,50300.79
2023-04-01T22:20:25.201Z,50325.58
2023-04-01T22:23:12.283Z,50310.79
2023-04-01T22:25:44.179Z,50322.38
2023-04-01T22:28:38.930Z,40251.31
2023-04-01T22:31:13.395Z,-1.00
2023-04-01T22:33:47.623Z,-1.00
2023-04-01T22:36:41.092Z,-1.00
2023-04-01T22:39:52.036Z,-1.00
2023-04-01T22:42:23.679Z,-1.00
2023-04-01T22:44:59.170Z,-1.00
2023-04-01T22:48:09.411Z,-1.00
2023-04-01T22:50:40.735Z,-1.00
2023-04-01T22:53:37.700Z,-1.00
2023-04-01T22:56:13.682Z,-1.00
2023-04-01T22:58:58.274Z,-1.00
2023-04-01T23:01:33.063Z,-1.00
2023-04-01T23:04:06.321Z,-1.00
2023-04-01T23:06:42.595Z,-1.00
2023-04-01T23:09:30.782Z,-1.00
2023-04-01T23:12:12.587Z,-1.00
2023-04-01T23:14:52.876Z,-1.00
2023-04-01T23:17:43.328Z,-1.00
2023-04-01T23:20:26.090Z,-1.00
2023-04-01T23:23:04.068Z,-1.00
2023-04-01T23:25:54.416Z,-1.00
2023-04-01T23:28:42.105Z,-1.00
2023-04-01T23:31:32.358Z,-1.00
2023-04-01T23:34:18.860Z,-1.00
2023-04-01T23:36:51.930Z,-1.00
2023-04-01T23:39:32.125Z,-1.00
2023-04-01T23:42:22.392Z,-1.00
2023-04-01T23:44:56.424Z,-1.00
2023-04-01T23:47:36.709Z,-1.00
2023-04-01T23:50:14.686Z,-1.00
2023-04-01T23:53:41.518Z,-1.00
2023-04-01T23:56:09.991Z,-1.00
2023-04-01T23:58:49.308Z,-1.00
